sensor_id;sensor_type;location;lat;lon;timestamp;P1;durP1;ratioP1;P2;durP2;ratioP2
59984;SDS011;45843;47.532;18.660;2024-02-26T00:00:42;0.20;;;0.20;;
59984;SDS011;45843;47.532;18.660;2024-02-26T00:03:08;0.20;;;0.20;;
59984;SDS011;45843;47.532;18.660;2024-02-26T00:05:34;0.10;;;0.10;;
59984;SDS011;45843;47.532;18.660;2024-02-26T00:08:01;0.10;;;0.10;;
59984;SDS011;45843;47.532;18.660;2024-02-26T00:10:27;0.10;;;0.10;;
59984;SDS011;45843;47.532;18.660;2024-02-26T00:12:54;0.10;;;0.10;;
59984;SDS011;45843;47.532;18.660;2024-02-26T00:15:20;0.10;;;0.10;;
59984;SDS011;45843;47.532;18.660;2024-02-26T00:17:46;0.10;;;0.10;;
59984;SDS011;45843;47.532;18.660;2024-02-26T00:20:13;0.10;;;0.10;;
59984;SDS011;45843;47.532;18.660;2024-02-26T00:22:39;0.10;;;0.10;;
59984;SDS011;45843;47.532;18.660;2024-02-26T00:25:06;0.13;;;0.13;;
59984;SDS011;45843;47.532;18.660;2024-02-26T00:27:32;0.10;;;0.10;;
59984;SDS011;45843;47.532;18.660;2024-02-26T00:29:58;0.10;;;0.10;;
59984;SDS011;45843;47.532;18.660;2024-02-26T00:32:25;0.08;;;0.08;;
59984;SDS011;45843;47.532;18.660;2024-02-26T00:34:51;0.10;;;0.10;;
59984;SDS011;45843;47.532;18.660;2024-02-26T00:37:18;0.15;;;0.15;;
59984;SDS011;45843;47.532;18.660;2024-02-26T00:39:44;0.10;;;0.10;;
59984;SDS011;45843;47.532;18.660;2024-02-26T00:42:12;0.10;;;0.10;;
59984;SDS011;45843;47.532;18.660;2024-02-26T00:44:38;0.05;;;0.05;;
59984;SDS011;45843;47.532;18.660;2024-02-26T00:47:04;0.10;;;0.10;;
59984;SDS011;45843;47.532;18.660;2024-02-26T00:49:31;0.20;;;0.20;;
59984;SDS011;45843;47.532;18.660;2024-02-26T00:51:57;0.20;;;0.20;;
59984;SDS011;45843;47.532;18.660;2024-02-26T00:54:23;0.15;;;0.15;;
59984;SDS011;45843;47.532;18.660;2024-02-26T00:56:50;0.10;;;0.10;;
59984;SDS011;45843;47.532;18.660;2024-02-26T00:59:16;0.10;;;0.10;;
59984;SDS011;45843;47.532;18.660;2024-02-26T01:01:42;0.10;;;0.10;;
59984;SDS011;45843;47.532;18.660;2024-02-26T01:04:09;0.10;;;0.10;;
59984;SDS011;45843;47.532;18.660;2024-02-26T01:06:35;0.10;;;0.10;;
59984;SDS011;45843;47.532;18.660;2024-02-26T01:09:02;0.10;;;0.10;;
59984;SDS011;45843;47.532;18.660;2024-02-26T01:11:28;0.10;;;0.10;;
59984;SDS011;45843;47.532;18.660;2024-02-26T01:13:54;0.10;;;0.10;;
59984;SDS011;45843;47.532;18.660;2024-02-26T01:16:22;0.20;;;0.20;;
59984;SDS011;45843;47.532;18.660;2024-02-26T01:18:49;0.10;;;0.10;;
59984;SDS011;45843;47.532;18.660;2024-02-26T01:21:15;0.10;;;0.10;;
59984;SDS011;45843;47.532;18.660;2024-02-26T01:23:42;0.10;;;0.10;;
59984;SDS011;45843;47.532;18.660;2024-02-26T01:26:08;0.10;;;0.10;;
59984;SDS011;45843;47.532;18.660;2024-02-26T01:28:34;0.00;;;0.00;;
59984;SDS011;45843;47.532;18.660;2024-02-26T01:31:01;0.10;;;0.10;;
59984;SDS011;45843;47.532;18.660;2024-02-26T01:33:30;0.10;;;0.10;;
59984;SDS011;45843;47.532;18.660;2024-02-26T01:35:56;0.10;;;0.10;;
59984;SDS011;45843;47.532;18.660;2024-02-26T01:38:23;0.10;;;0.10;;
59984;SDS011;45843;47.532;18.660;2024-02-26T01:40:49;0.10;;;0.10;;
59984;SDS011;45843;47.532;18.660;2024-02-26T01:43:15;0.10;;;0.10;;
59984;SDS011;45843;47.532;18.660;2024-02-26T01:45:42;0.10;;;0.10;;
59984;SDS011;45843;47.532;18.660;2024-02-26T01:48:08;0.10;;;0.10;;
59984;SDS011;45843;47.532;18.660;2024-02-26T01:50:36;0.10;;;0.10;;
59984;SDS011;45843;47.532;18.660;2024-02-26T01:53:03;0.08;;;0.08;;
59984;SDS011;45843;47.532;18.660;2024-02-26T01:55:30;0.10;;;0.10;;
59984;SDS011;45843;47.532;18.660;2024-02-26T01:57:56;0.10;;;0.10;;
59984;SDS011;45843;47.532;18.660;2024-02-26T02:00:23;0.10;;;0.10;;
59984;SDS011;45843;47.532;18.660;2024-02-26T02:02:50;0.20;;;0.20;;
59984;SDS011;45843;47.532;18.660;2024-02-26T02:05:17;0.10;;;0.10;;
59984;SDS011;45843;47.532;18.660;2024-02-26T02:07:46;0.10;;;0.10;;
59984;SDS011;45843;47.532;18.660;2024-02-26T02:10:14;0.10;;;0.10;;
59984;SDS011;45843;47.532;18.660;2024-02-26T02:12:41;0.10;;;0.10;;
59984;SDS011;45843;47.532;18.660;2024-02-26T02:15:08;0.10;;;0.10;;
59984;SDS011;45843;47.532;18.660;2024-02-26T02:17:34;0.10;;;0.10;;
59984;SDS011;45843;47.532;18.660;2024-02-26T02:20:01;0.10;;;0.10;;
59984;SDS011;45843;47.532;18.660;2024-02-26T02:22:28;0.10;;;0.10;;
59984;SDS011;45843;47.532;18.660;2024-02-26T02:24:57;0.20;;;0.20;;
59984;SDS011;45843;47.532;18.660;2024-02-26T02:27:24;0.10;;;0.10;;
59984;SDS011;45843;47.532;18.660;2024-02-26T02:29:51;0.10;;;0.10;;
59984;SDS011;45843;47.532;18.660;2024-02-26T02:32:17;0.10;;;0.10;;
59984;SDS011;45843;47.532;18.660;2024-02-26T02:34:44;0.10;;;0.10;;
59984;SDS011;45843;47.532;18.660;2024-02-26T02:37:11;0.10;;;0.10;;
59984;SDS011;45843;47.532;18.660;2024-02-26T02:39:37;0.10;;;0.10;;
59984;SDS011;45843;47.532;18.660;2024-02-26T02:42:04;0.10;;;0.10;;
59984;SDS011;45843;47.532;18.660;2024-02-26T02:44:30;0.10;;;0.10;;
59984;SDS011;45843;47.532;18.660;2024-02-26T02:46:56;0.10;;;0.10;;
59984;SDS011;45843;47.532;18.660;2024-02-26T02:49:23;0.10;;;0.10;;
59984;SDS011;45843;47.532;18.660;2024-02-26T02:51:49;0.10;;;0.10;;
59984;SDS011;45843;47.532;18.660;2024-02-26T02:54:16;0.10;;;0.10;;
59984;SDS011;45843;47.532;18.660;2024-02-26T02:56:42;0.00;;;0.00;;
59984;SDS011;45843;47.532;18.660;2024-02-26T02:59:09;0.08;;;0.08;;
59984;SDS011;45843;47.532;18.660;2024-02-26T03:01:35;0.10;;;0.10;;
59984;SDS011;45843;47.532;18.660;2024-02-26T03:04:01;0.10;;;0.10;;
59984;SDS011;45843;47.532;18.660;2024-02-26T03:06:28;0.20;;;0.20;;
59984;SDS011;45843;47.532;18.660;2024-02-26T03:08:54;0.10;;;0.10;;
59984;SDS011;45843;47.532;18.660;2024-02-26T03:11:21;0.10;;;0.10;;
59984;SDS011;45843;47.532;18.660;2024-02-26T03:13:47;0.30;;;0.30;;
59984;SDS011;45843;47.532;18.660;2024-02-26T03:16:13;0.20;;;0.20;;
59984;SDS011;45843;47.532;18.660;2024-02-26T03:18:40;0.10;;;0.10;;
59984;SDS011;45843;47.532;18.660;2024-02-26T03:21:06;0.20;;;0.20;;
59984;SDS011;45843;47.532;18.660;2024-02-26T03:23:33;0.13;;;0.13;;
59984;SDS011;45843;47.532;18.660;2024-02-26T03:26:03;0.10;;;0.10;;
59984;SDS011;45843;47.532;18.660;2024-02-26T03:28:29;0.13;;;0.13;;
59984;SDS011;45843;47.532;18.660;2024-02-26T03:30:58;0.10;;;0.10;;
59984;SDS011;45843;47.532;18.660;2024-02-26T03:33:25;0.20;;;0.20;;
59984;SDS011;45843;47.532;18.660;2024-02-26T03:35:51;0.10;;;0.10;;
59984;SDS011;45843;47.532;18.660;2024-02-26T03:38:18;0.10;;;0.10;;
59984;SDS011;45843;47.532;18.660;2024-02-26T03:40:44;0.08;;;0.08;;
59984;SDS011;45843;47.532;18.660;2024-02-26T03:43:11;0.10;;;0.10;;
59984;SDS011;45843;47.532;18.660;2024-02-26T03:45:38;0.10;;;0.10;;
59984;SDS011;45843;47.532;18.660;2024-02-26T03:48:04;0.10;;;0.10;;
59984;SDS011;45843;47.532;18.660;2024-02-26T03:50:31;0.10;;;0.10;;
59984;SDS011;45843;47.532;18.660;2024-02-26T03:52:58;0.10;;;0.10;;
59984;SDS011;45843;47.532;18.660;2024-02-26T03:55:25;0.10;;;0.10;;
59984;SDS011;45843;47.532;18.660;2024-02-26T03:57:51;0.10;;;0.10;;
59984;SDS011;45843;47.532;18.660;2024-02-26T04:00:18;0.10;;;0.10;;
59984;SDS011;45843;47.532;18.660;2024-02-26T04:02:46;0.10;;;0.10;;
59984;SDS011;45843;47.532;18.660;2024-02-26T04:05:13;0.10;;;0.10;;
59984;SDS011;45843;47.532;18.660;2024-02-26T04:07:40;0.10;;;0.10;;
59984;SDS011;45843;47.532;18.660;2024-02-26T04:10:09;0.17;;;0.17;;
59984;SDS011;45843;47.532;18.660;2024-02-26T04:12:38;0.10;;;0.10;;
59984;SDS011;45843;47.532;18.660;2024-02-26T04:15:05;0.10;;;0.10;;
59984;SDS011;45843;47.532;18.660;2024-02-26T04:17:32;0.10;;;0.10;;
59984;SDS011;45843;47.532;18.660;2024-02-26T04:19:58;0.17;;;0.17;;
59984;SDS011;45843;47.532;18.660;2024-02-26T04:22:24;0.10;;;0.10;;
59984;SDS011;45843;47.532;18.660;2024-02-26T04:24:51;0.10;;;0.10;;
59984;SDS011;45843;47.532;18.660;2024-02-26T04:27:17;0.10;;;0.10;;
59984;SDS011;45843;47.532;18.660;2024-02-26T04:29:43;0.10;;;0.10;;
59984;SDS011;45843;47.532;18.660;2024-02-26T04:32:10;0.10;;;0.10;;
59984;SDS011;45843;47.532;18.660;2024-02-26T04:34:36;0.00;;;0.00;;
59984;SDS011;45843;47.532;18.660;2024-02-26T04:37:03;0.10;;;0.10;;
59984;SDS011;45843;47.532;18.660;2024-02-26T04:39:29;0.10;;;0.10;;
59984;SDS011;45843;47.532;18.660;2024-02-26T04:41:56;0.10;;;0.10;;
59984;SDS011;45843;47.532;18.660;2024-02-26T04:44:22;0.20;;;0.20;;
59984;SDS011;45843;47.532;18.660;2024-02-26T04:46:48;0.00;;;0.00;;
59984;SDS011;45843;47.532;18.660;2024-02-26T04:49:15;0.00;;;0.00;;
59984;SDS011;45843;47.532;18.660;2024-02-26T04:51:41;0.08;;;0.08;;
59984;SDS011;45843;47.532;18.660;2024-02-26T04:54:07;0.10;;;0.10;;
59984;SDS011;45843;47.532;18.660;2024-02-26T04:56:34;0.13;;;0.13;;
59984;SDS011;45843;47.532;18.660;2024-02-26T04:59:00;0.10;;;0.10;;
59984;SDS011;45843;47.532;18.660;2024-02-26T05:01:27;0.00;;;0.00;;
59984;SDS011;45843;47.532;18.660;2024-02-26T05:03:53;0.20;;;0.20;;
59984;SDS011;45843;47.532;18.660;2024-02-26T05:06:19;0.08;;;0.08;;
59984;SDS011;45843;47.532;18.660;2024-02-26T05:08:46;0.10;;;0.10;;
59984;SDS011;45843;47.532;18.660;2024-02-26T05:11:12;0.13;;;0.13;;
59984;SDS011;45843;47.532;18.660;2024-02-26T05:13:39;0.20;;;0.20;;
59984;SDS011;45843;47.532;18.660;2024-02-26T05:16:05;0.10;;;0.10;;
59984;SDS011;45843;47.532;18.660;2024-02-26T05:18:31;0.10;;;0.10;;
59984;SDS011;45843;47.532;18.660;2024-02-26T05:20:58;0.00;;;0.00;;
59984;SDS011;45843;47.532;18.660;2024-02-26T05:23:25;0.10;;;0.10;;
59984;SDS011;45843;47.532;18.660;2024-02-26T05:25:52;0.10;;;0.10;;
59984;SDS011;45843;47.532;18.660;2024-02-26T05:28:18;0.10;;;0.10;;
59984;SDS011;45843;47.532;18.660;2024-02-26T05:30:46;0.10;;;0.10;;
59984;SDS011;45843;47.532;18.660;2024-02-26T05:33:12;0.10;;;0.10;;
59984;SDS011;45843;47.532;18.660;2024-02-26T05:35:38;0.05;;;0.05;;
59984;SDS011;45843;47.532;18.660;2024-02-26T05:38:05;0.20;;;0.20;;
59984;SDS011;45843;47.532;18.660;2024-02-26T05:40:32;0.10;;;0.10;;
59984;SDS011;45843;47.532;18.660;2024-02-26T05:42:58;0.10;;;0.10;;
59984;SDS011;45843;47.532;18.660;2024-02-26T05:45:25;0.10;;;0.10;;
59984;SDS011;45843;47.532;18.660;2024-02-26T05:47:51;0.10;;;0.10;;
59984;SDS011;45843;47.532;18.660;2024-02-26T05:50:17;0.10;;;0.10;;
59984;SDS011;45843;47.532;18.660;2024-02-26T05:52:44;0.20;;;0.20;;
59984;SDS011;45843;47.532;18.660;2024-02-26T05:55:10;0.10;;;0.10;;
59984;SDS011;45843;47.532;18.660;2024-02-26T05:57:38;0.10;;;0.10;;
59984;SDS011;45843;47.532;18.660;2024-02-26T06:00:04;0.10;;;0.10;;
59984;SDS011;45843;47.532;18.660;2024-02-26T06:02:30;0.10;;;0.10;;
59984;SDS011;45843;47.532;18.660;2024-02-26T06:04:57;0.20;;;0.20;;
59984;SDS011;45843;47.532;18.660;2024-02-26T06:07:23;0.13;;;0.13;;
59984;SDS011;45843;47.532;18.660;2024-02-26T06:09:50;0.10;;;0.10;;
59984;SDS011;45843;47.532;18.660;2024-02-26T06:12:16;0.10;;;0.10;;
59984;SDS011;45843;47.532;18.660;2024-02-26T06:14:43;0.10;;;0.10;;
59984;SDS011;45843;47.532;18.660;2024-02-26T06:17:09;0.10;;;0.10;;
59984;SDS011;45843;47.532;18.660;2024-02-26T06:19:35;0.10;;;0.10;;
59984;SDS011;45843;47.532;18.660;2024-02-26T06:22:02;0.10;;;0.10;;
59984;SDS011;45843;47.532;18.660;2024-02-26T06:24:28;0.10;;;0.10;;
59984;SDS011;45843;47.532;18.660;2024-02-26T06:26:54;0.20;;;0.20;;
59984;SDS011;45843;47.532;18.660;2024-02-26T06:29:21;0.10;;;0.10;;
59984;SDS011;45843;47.532;18.660;2024-02-26T06:31:47;0.10;;;0.10;;
59984;SDS011;45843;47.532;18.660;2024-02-26T06:34:16;0.10;;;0.10;;
59984;SDS011;45843;47.532;18.660;2024-02-26T06:36:42;0.10;;;0.10;;
59984;SDS011;45843;47.532;18.660;2024-02-26T06:39:08;0.10;;;0.10;;
59984;SDS011;45843;47.532;18.660;2024-02-26T06:41:36;0.10;;;0.10;;
59984;SDS011;45843;47.532;18.660;2024-02-26T06:44:04;0.10;;;0.10;;
59984;SDS011;45843;47.532;18.660;2024-02-26T06:46:31;0.10;;;0.10;;
59984;SDS011;45843;47.532;18.660;2024-02-26T06:48:57;0.10;;;0.10;;
59984;SDS011;45843;47.532;18.660;2024-02-26T06:51:24;0.17;;;0.17;;
59984;SDS011;45843;47.532;18.660;2024-02-26T06:53:50;0.10;;;0.10;;
59984;SDS011;45843;47.532;18.660;2024-02-26T06:56:16;0.10;;;0.10;;
59984;SDS011;45843;47.532;18.660;2024-02-26T06:58:43;0.10;;;0.10;;
59984;SDS011;45843;47.532;18.660;2024-02-26T07:01:09;0.10;;;0.10;;
59984;SDS011;45843;47.532;18.660;2024-02-26T07:03:36;0.10;;;0.10;;
59984;SDS011;45843;47.532;18.660;2024-02-26T07:06:02;0.10;;;0.10;;
59984;SDS011;45843;47.532;18.660;2024-02-26T07:08:29;0.03;;;0.03;;
59984;SDS011;45843;47.532;18.660;2024-02-26T07:10:55;0.10;;;0.10;;
59984;SDS011;45843;47.532;18.660;2024-02-26T07:13:22;0.10;;;0.10;;
59984;SDS011;45843;47.532;18.660;2024-02-26T07:15:48;0.13;;;0.13;;
59984;SDS011;45843;47.532;18.660;2024-02-26T07:18:15;0.10;;;0.10;;
59984;SDS011;45843;47.532;18.660;2024-02-26T07:20:41;0.00;;;0.00;;
59984;SDS011;45843;47.532;18.660;2024-02-26T07:23:07;0.10;;;0.10;;
59984;SDS011;45843;47.532;18.660;2024-02-26T07:25:34;0.10;;;0.10;;
59984;SDS011;45843;47.532;18.660;2024-02-26T07:28:01;0.08;;;0.08;;
59984;SDS011;45843;47.532;18.660;2024-02-26T07:30:27;0.13;;;0.13;;
59984;SDS011;45843;47.532;18.660;2024-02-26T07:32:53;0.05;;;0.05;;
59984;SDS011;45843;47.532;18.660;2024-02-26T07:35:20;0.10;;;0.10;;
59984;SDS011;45843;47.532;18.660;2024-02-26T07:37:47;0.00;;;0.00;;
59984;SDS011;45843;47.532;18.660;2024-02-26T07:40:15;0.10;;;0.10;;
59984;SDS011;45843;47.532;18.660;2024-02-26T07:42:42;0.10;;;0.10;;
59984;SDS011;45843;47.532;18.660;2024-02-26T07:45:09;0.00;;;0.00;;
59984;SDS011;45843;47.532;18.660;2024-02-26T07:47:36;0.00;;;0.00;;
59984;SDS011;45843;47.532;18.660;2024-02-26T07:50:06;0.10;;;0.10;;
59984;SDS011;45843;47.532;18.660;2024-02-26T07:52:33;0.10;;;0.10;;
59984;SDS011;45843;47.532;18.660;2024-02-26T07:54:59;0.10;;;0.10;;
59984;SDS011;45843;47.532;18.660;2024-02-26T07:57:26;0.10;;;0.10;;
59984;SDS011;45843;47.532;18.660;2024-02-26T07:59:52;0.10;;;0.10;;
59984;SDS011;45843;47.532;18.660;2024-02-26T08:02:19;0.00;;;0.00;;
59984;SDS011;45843;47.532;18.660;2024-02-26T08:04:45;0.10;;;0.10;;
59984;SDS011;45843;47.532;18.660;2024-02-26T08:07:11;0.10;;;0.10;;
59984;SDS011;45843;47.532;18.660;2024-02-26T08:09:38;0.10;;;0.10;;
59984;SDS011;45843;47.532;18.660;2024-02-26T08:12:04;0.17;;;0.17;;
59984;SDS011;45843;47.532;18.660;2024-02-26T08:14:31;0.10;;;0.10;;
59984;SDS011;45843;47.532;18.660;2024-02-26T08:16:58;0.05;;;0.05;;
59984;SDS011;45843;47.532;18.660;2024-02-26T08:19:24;0.10;;;0.10;;
59984;SDS011;45843;47.532;18.660;2024-02-26T08:21:51;0.10;;;0.10;;
59984;SDS011;45843;47.532;18.660;2024-02-26T08:24:17;0.10;;;0.10;;
59984;SDS011;45843;47.532;18.660;2024-02-26T08:26:44;0.10;;;0.10;;
59984;SDS011;45843;47.532;18.660;2024-02-26T08:29:10;0.10;;;0.10;;
59984;SDS011;45843;47.532;18.660;2024-02-26T08:31:37;0.00;;;0.00;;
59984;SDS011;45843;47.532;18.660;2024-02-26T08:34:04;0.00;;;0.00;;
59984;SDS011;45843;47.532;18.660;2024-02-26T08:36:31;0.00;;;0.00;;
59984;SDS011;45843;47.532;18.660;2024-02-26T08:38:58;0.00;;;0.00;;
59984;SDS011;45843;47.532;18.660;2024-02-26T08:41:24;0.10;;;0.10;;
59984;SDS011;45843;47.532;18.660;2024-02-26T08:43:51;0.10;;;0.10;;
59984;SDS011;45843;47.532;18.660;2024-02-26T08:46:17;0.00;;;0.00;;
59984;SDS011;45843;47.532;18.660;2024-02-26T08:48:43;0.10;;;0.10;;
59984;SDS011;45843;47.532;18.660;2024-02-26T08:51:10;0.00;;;0.00;;
59984;SDS011;45843;47.532;18.660;2024-02-26T08:53:36;0.00;;;0.00;;
59984;SDS011;45843;47.532;18.660;2024-02-26T08:56:03;0.00;;;0.00;;
59984;SDS011;45843;47.532;18.660;2024-02-26T08:58:29;0.00;;;0.00;;
59984;SDS011;45843;47.532;18.660;2024-02-26T09:00:56;0.00;;;0.00;;
59984;SDS011;45843;47.532;18.660;2024-02-26T09:03:22;0.00;;;0.00;;
59984;SDS011;45843;47.532;18.660;2024-02-26T09:05:49;0.00;;;0.00;;
59984;SDS011;45843;47.532;18.660;2024-02-26T09:08:16;0.05;;;0.05;;
59984;SDS011;45843;47.532;18.660;2024-02-26T09:10:42;0.00;;;0.00;;
59984;SDS011;45843;47.532;18.660;2024-02-26T09:13:10;0.00;;;0.00;;
59984;SDS011;45843;47.532;18.660;2024-02-26T09:15:36;0.00;;;0.00;;
59984;SDS011;45843;47.532;18.660;2024-02-26T09:18:02;0.10;;;0.10;;
59984;SDS011;45843;47.532;18.660;2024-02-26T09:20:29;0.00;;;0.00;;
59984;SDS011;45843;47.532;18.660;2024-02-26T09:22:56;0.00;;;0.00;;
59984;SDS011;45843;47.532;18.660;2024-02-26T09:25:22;0.00;;;0.00;;
59984;SDS011;45843;47.532;18.660;2024-02-26T09:27:48;0.05;;;0.05;;
59984;SDS011;45843;47.532;18.660;2024-02-26T09:30:15;0.00;;;0.00;;
59984;SDS011;45843;47.532;18.660;2024-02-26T09:32:45;0.00;;;0.00;;
59984;SDS011;45843;47.532;18.660;2024-02-26T09:35:12;0.10;;;0.10;;
59984;SDS011;45843;47.532;18.660;2024-02-26T09:37:39;0.00;;;0.00;;
59984;SDS011;45843;47.532;18.660;2024-02-26T09:40:05;0.00;;;0.00;;
59984;SDS011;45843;47.532;18.660;2024-02-26T09:42:32;0.00;;;0.00;;
59984;SDS011;45843;47.532;18.660;2024-02-26T09:45:00;0.00;;;0.00;;
59984;SDS011;45843;47.532;18.660;2024-02-26T09:47:31;0.00;;;0.00;;
59984;SDS011;45843;47.532;18.660;2024-02-26T09:49:58;0.03;;;0.03;;
59984;SDS011;45843;47.532;18.660;2024-02-26T09:52:25;0.00;;;0.00;;
59984;SDS011;45843;47.532;18.660;2024-02-26T09:54:51;0.08;;;0.08;;
59984;SDS011;45843;47.532;18.660;2024-02-26T09:57:18;0.00;;;0.00;;
59984;SDS011;45843;47.532;18.660;2024-02-26T09:59:44;0.00;;;0.00;;
59984;SDS011;45843;47.532;18.660;2024-02-26T10:02:13;0.00;;;0.00;;
59984;SDS011;45843;47.532;18.660;2024-02-26T10:04:40;0.00;;;0.00;;
59984;SDS011;45843;47.532;18.660;2024-02-26T10:07:10;0.00;;;0.00;;
59984;SDS011;45843;47.532;18.660;2024-02-26T10:09:37;0.00;;;0.00;;
59984;SDS011;45843;47.532;18.660;2024-02-26T10:12:04;0.10;;;0.10;;
59984;SDS011;45843;47.532;18.660;2024-02-26T10:14:30;0.00;;;0.00;;
59984;SDS011;45843;47.532;18.660;2024-02-26T10:16:57;0.00;;;0.00;;
59984;SDS011;45843;47.532;18.660;2024-02-26T10:19:24;0.10;;;0.10;;
59984;SDS011;45843;47.532;18.660;2024-02-26T10:21:58;0.10;;;0.10;;
59984;SDS011;45843;47.532;18.660;2024-02-26T10:24:30;0.00;;;0.00;;
59984;SDS011;45843;47.532;18.660;2024-02-26T10:26:56;0.00;;;0.00;;
59984;SDS011;45843;47.532;18.660;2024-02-26T10:29:23;0.10;;;0.10;;
59984;SDS011;45843;47.532;18.660;2024-02-26T11:12:44;0.10;;;0.10;;
59984;SDS011;45843;47.532;18.660;2024-02-26T11:15:12;0.00;;;0.00;;
59984;SDS011;45843;47.532;18.660;2024-02-26T11:17:39;0.00;;;0.00;;
59984;SDS011;45843;47.532;18.660;2024-02-26T11:20:09;0.00;;;0.00;;
59984;SDS011;45843;47.532;18.660;2024-02-26T11:22:36;0.00;;;0.00;;
59984;SDS011;45843;47.532;18.660;2024-02-26T11:25:03;0.00;;;0.00;;
59984;SDS011;45843;47.532;18.660;2024-02-26T11:27:30;0.00;;;0.00;;
59984;SDS011;45843;47.532;18.660;2024-02-26T11:29:58;0.00;;;0.00;;
59984;SDS011;45843;47.532;18.660;2024-02-26T11:32:29;0.00;;;0.00;;
59984;SDS011;45843;47.532;18.660;2024-02-26T11:34:56;0.00;;;0.00;;
59984;SDS011;45843;47.532;18.660;2024-02-26T11:37:23;0.00;;;0.00;;
59984;SDS011;45843;47.532;18.660;2024-02-26T11:39:49;0.00;;;0.00;;
59984;SDS011;45843;47.532;18.660;2024-02-26T11:42:17;0.00;;;0.00;;
59984;SDS011;45843;47.532;18.660;2024-02-26T11:44:44;0.03;;;0.03;;
59984;SDS011;45843;47.532;18.660;2024-02-26T11:49:37;0.00;;;0.00;;
59984;SDS011;45843;47.532;18.660;2024-02-26T11:52:05;0.00;;;0.00;;
59984;SDS011;45843;47.532;18.660;2024-02-26T11:54:45;0.00;;;0.00;;
59984;SDS011;45843;47.532;18.660;2024-02-26T11:57:22;0.00;;;0.00;;
59984;SDS011;45843;47.532;18.660;2024-02-26T11:59:49;0.10;;;0.10;;
59984;SDS011;45843;47.532;18.660;2024-02-26T12:05:01;0.10;;;0.10;;
59984;SDS011;45843;47.532;18.660;2024-02-26T12:07:28;0.00;;;0.00;;
59984;SDS011;45843;47.532;18.660;2024-02-26T12:10:12;0.00;;;0.00;;
59984;SDS011;45843;47.532;18.660;2024-02-26T12:12:39;0.00;;;0.00;;
59984;SDS011;45843;47.532;18.660;2024-02-26T12:15:08;0.10;;;0.10;;
59984;SDS011;45843;47.532;18.660;2024-02-26T12:17:36;0.00;;;0.00;;
59984;SDS011;45843;47.532;18.660;2024-02-26T12:20:09;0.03;;;0.03;;
59984;SDS011;45843;47.532;18.660;2024-02-26T12:22:38;0.00;;;0.00;;
59984;SDS011;45843;47.532;18.660;2024-02-26T12:25:08;0.10;;;0.10;;
59984;SDS011;45843;47.532;18.660;2024-02-26T12:27:35;0.00;;;0.00;;
59984;SDS011;45843;47.532;18.660;2024-02-26T12:30:02;0.00;;;0.00;;
59984;SDS011;45843;47.532;18.660;2024-02-26T12:32:28;0.00;;;0.00;;
59984;SDS011;45843;47.532;18.660;2024-02-26T12:34:56;0.00;;;0.00;;
59984;SDS011;45843;47.532;18.660;2024-02-26T12:37:22;0.00;;;0.00;;
59984;SDS011;45843;47.532;18.660;2024-02-26T12:39:49;0.00;;;0.00;;
59984;SDS011;45843;47.532;18.660;2024-02-26T12:42:15;0.00;;;0.00;;
59984;SDS011;45843;47.532;18.660;2024-02-26T12:44:42;0.00;;;0.00;;
59984;SDS011;45843;47.532;18.660;2024-02-26T12:47:11;0.00;;;0.00;;
59984;SDS011;45843;47.532;18.660;2024-02-26T12:49:47;0.00;;;0.00;;
59984;SDS011;45843;47.532;18.660;2024-02-26T12:52:14;0.08;;;0.08;;
59984;SDS011;45843;47.532;18.660;2024-02-26T12:54:41;0.00;;;0.00;;
59984;SDS011;45843;47.532;18.660;2024-02-26T12:57:08;0.00;;;0.00;;
59984;SDS011;45843;47.532;18.660;2024-02-26T12:59:34;0.00;;;0.00;;
59984;SDS011;45843;47.532;18.660;2024-02-26T13:02:01;0.00;;;0.00;;
59984;SDS011;45843;47.532;18.660;2024-02-26T13:04:29;0.00;;;0.00;;
59984;SDS011;45843;47.532;18.660;2024-02-26T13:06:56;0.00;;;0.00;;
59984;SDS011;45843;47.532;18.660;2024-02-26T13:09:28;0.00;;;0.00;;
59984;SDS011;45843;47.532;18.660;2024-02-26T13:11:58;0.00;;;0.00;;
59984;SDS011;45843;47.532;18.660;2024-02-26T13:14:26;0.10;;;0.10;;
59984;SDS011;45843;47.532;18.660;2024-02-26T13:16:55;0.00;;;0.00;;
59984;SDS011;45843;47.532;18.660;2024-02-26T13:19:22;0.00;;;0.00;;
59984;SDS011;45843;47.532;18.660;2024-02-26T13:21:48;0.00;;;0.00;;
59984;SDS011;45843;47.532;18.660;2024-02-26T13:24:15;0.00;;;0.00;;
59984;SDS011;45843;47.532;18.660;2024-02-26T13:26:43;0.00;;;0.00;;
59984;SDS011;45843;47.532;18.660;2024-02-26T13:29:16;0.00;;;0.00;;
59984;SDS011;45843;47.532;18.660;2024-02-26T13:31:42;0.00;;;0.00;;
59984;SDS011;45843;47.532;18.660;2024-02-26T13:34:08;0.00;;;0.00;;
59984;SDS011;45843;47.532;18.660;2024-02-26T13:36:35;0.10;;;0.10;;
59984;SDS011;45843;47.532;18.660;2024-02-26T13:39:04;0.00;;;0.00;;
59984;SDS011;45843;47.532;18.660;2024-02-26T13:41:30;0.00;;;0.00;;
59984;SDS011;45843;47.532;18.660;2024-02-26T13:43:57;0.00;;;0.00;;
59984;SDS011;45843;47.532;18.660;2024-02-26T13:46:24;0.03;;;0.03;;
59984;SDS011;45843;47.532;18.660;2024-02-26T13:48:50;0.00;;;0.00;;
59984;SDS011;45843;47.532;18.660;2024-02-26T13:51:17;0.00;;;0.00;;
59984;SDS011;45843;47.532;18.660;2024-02-26T13:53:44;0.00;;;0.00;;
59984;SDS011;45843;47.532;18.660;2024-02-26T13:56:10;0.00;;;0.00;;
59984;SDS011;45843;47.532;18.660;2024-02-26T13:58:37;0.08;;;0.08;;
59984;SDS011;45843;47.532;18.660;2024-02-26T14:01:03;0.00;;;0.00;;
59984;SDS011;45843;47.532;18.660;2024-02-26T14:03:31;0.00;;;0.00;;
59984;SDS011;45843;47.532;18.660;2024-02-26T14:05:57;0.00;;;0.00;;
59984;SDS011;45843;47.532;18.660;2024-02-26T14:08:23;0.00;;;0.00;;
59984;SDS011;45843;47.532;18.660;2024-02-26T14:10:50;0.00;;;0.00;;
59984;SDS011;45843;47.532;18.660;2024-02-26T14:13:16;0.00;;;0.00;;
59984;SDS011;45843;47.532;18.660;2024-02-26T14:15:43;0.00;;;0.00;;
59984;SDS011;45843;47.532;18.660;2024-02-26T14:18:09;0.00;;;0.00;;
59984;SDS011;45843;47.532;18.660;2024-02-26T14:20:35;0.00;;;0.00;;
59984;SDS011;45843;47.532;18.660;2024-02-26T14:23:02;0.00;;;0.00;;
59984;SDS011;45843;47.532;18.660;2024-02-26T14:25:28;0.00;;;0.00;;
59984;SDS011;45843;47.532;18.660;2024-02-26T14:27:55;0.00;;;0.00;;
59984;SDS011;45843;47.532;18.660;2024-02-26T14:30:22;0.00;;;0.00;;
59984;SDS011;45843;47.532;18.660;2024-02-26T14:32:48;0.00;;;0.00;;
59984;SDS011;45843;47.532;18.660;2024-02-26T14:35:15;0.00;;;0.00;;
59984;SDS011;45843;47.532;18.660;2024-02-26T14:37:41;0.00;;;0.00;;
59984;SDS011;45843;47.532;18.660;2024-02-26T14:40:09;0.00;;;0.00;;
59984;SDS011;45843;47.532;18.660;2024-02-26T14:42:35;0.00;;;0.00;;
59984;SDS011;45843;47.532;18.660;2024-02-26T14:45:02;0.00;;;0.00;;
59984;SDS011;45843;47.532;18.660;2024-02-26T14:47:31;0.00;;;0.00;;
59984;SDS011;45843;47.532;18.660;2024-02-26T14:49:57;0.00;;;0.00;;
59984;SDS011;45843;47.532;18.660;2024-02-26T14:52:24;0.00;;;0.00;;
59984;SDS011;45843;47.532;18.660;2024-02-26T14:54:50;0.00;;;0.00;;
59984;SDS011;45843;47.532;18.660;2024-02-26T14:57:17;0.00;;;0.00;;
59984;SDS011;45843;47.532;18.660;2024-02-26T14:59:43;0.10;;;0.10;;
59984;SDS011;45843;47.532;18.660;2024-02-26T15:02:10;0.00;;;0.00;;
59984;SDS011;45843;47.532;18.660;2024-02-26T15:04:36;0.00;;;0.00;;
59984;SDS011;45843;47.532;18.660;2024-02-26T15:11:56;0.00;;;0.00;;
59984;SDS011;45843;47.532;18.660;2024-02-26T15:14:26;0.00;;;0.00;;
59984;SDS011;45843;47.532;18.660;2024-02-26T15:16:52;0.00;;;0.00;;
59984;SDS011;45843;47.532;18.660;2024-02-26T15:19:19;0.00;;;0.00;;
59984;SDS011;45843;47.532;18.660;2024-02-26T15:21:45;0.00;;;0.00;;